createdAt,value
2022-08-16T00:00:30.396Z,98178.20
2022-08-16T00:03:13.312Z,98176.00
2022-08-16T00:05:47.913Z,98180.80
2022-08-16T00:08:36.099Z,98182.80
2022-08-16T00:11:15.824Z,98188.00
2022-08-16T00:13:54.360Z,98186.60
2022-08-16T00:17:00.941Z,98187.20
2022-08-16T00:19:41.784Z,98187.00
2022-08-16T00:22:12.977Z,98183.80
2022-08-16T00:24:46.932Z,98185.80
2022-08-16T00:27:15.589Z,98184.40
2022-08-16T00:29:45.875Z,98183.20
2022-08-16T00:32:18.178Z,98182.80
2022-08-16T00:34:53.245Z,98184.80
2022-08-16T00:37:58.668Z,98186.60
2022-08-16T00:40:33.623Z,98192.80
2022-08-16T00:43:12.011Z,98193.40
2022-08-16T00:46:33.654Z,98194.80
2022-08-16T00:49:18.801Z,98202.00
2022-08-16T00:51:54.803Z,98204.80
2022-08-16T00:54:29.194Z,98210.40
2022-08-16T00:57:00.875Z,98211.40
2022-08-16T00:59:34.599Z,98205.00
2022-08-16T01:02:30.600Z,98196.60
2022-08-16T01:05:09.448Z,98197.80
2022-08-16T01:07:51.192Z,98199.20
2022-08-16T01:10:32.095Z,98196.80
2022-08-16T01:13:12.266Z,98193.20
2022-08-16T01:15:54.130Z,98200.20
2022-08-16T01:18:39.402Z,98204.60
2022-08-16T01:21:33.845Z,98210.00
2022-08-16T01:24:53.495Z,98217.00
2022-08-16T01:27:20.531Z,98220.20
2022-08-16T01:29:59.829Z,98218.40
2022-08-16T01:32:42.516Z,98224.60
2022-08-16T01:35:24.820Z,98225.60
2022-08-16T01:37:57.215Z,98230.20
2022-08-16T01:40:30.796Z,98230.00
2022-08-16T01:42:58.911Z,98228.40
2022-08-16T01:45:39.730Z,98224.00
2022-08-16T01:48:19.867Z,98221.80
2022-08-16T01:51:09.169Z,98220.60
2022-08-16T01:53:41.255Z,98223.00
2022-08-16T01:56:24.790Z,98220.40
2022-08-16T01:58:57.166Z,98218.60
2022-08-16T02:01:28.166Z,98217.00
2022-08-16T02:03:58.716Z,98214.60
2022-08-16T02:06:46.797Z,98218.60
2022-08-16T02:09:18.111Z,98220.80
2022-08-16T02:11:53.086Z,98213.60
2022-08-16T02:14:27.347Z,98210.00
2022-08-16T02:16:59.604Z,98208.60
2022-08-16T02:19:59.645Z,98209.80
2022-08-16T02:22:34.324Z,98199.00
2022-08-16T02:25:14.840Z,98200.80
2022-08-16T02:27:50.841Z,98199.60
2022-08-16T02:30:36.719Z,98195.20
2022-08-16T02:33:12.861Z,98194.80
2022-08-16T02:35:53.871Z,98198.20
2022-08-16T02:38:24.022Z,98194.20
2022-08-16T02:40:54.685Z,98197.00
2022-08-16T02:43:29.803Z,98200.20
2022-08-16T02:46:02.695Z,98203.80
2022-08-16T02:48:36.474Z,98203.00
2022-08-16T02:51:11.290Z,98207.20
2022-08-16T02:53:45.131Z,98208.40
2022-08-16T02:56:16.483Z,98212.60
2022-08-16T02:58:46.611Z,98213.60
2022-08-16T03:01:24.643Z,98212.40
2022-08-16T03:04:41.160Z,98209.40
2022-08-16T03:06:56.682Z,98204.60
2022-08-16T03:09:28.540Z,98207.00
2022-08-16T03:11:57.536Z,98203.40
2022-08-16T03:14:26.080Z,98204.00
2022-08-16T03:16:59.636Z,98203.20
2022-08-16T03:19:48.714Z,98208.80
2022-08-16T03:22:27.945Z,98211.00
2022-08-16T03:25:05.119Z,98216.20
2022-08-16T03:27:39.216Z,98212.40
2022-08-16T03:30:25.791Z,98214.00
2022-08-16T03:32:53.871Z,98217.80
2022-08-16T03:35:33.311Z,98218.00
2022-08-16T03:38:08.545Z,98215.60
2022-08-16T03:40:56.152Z,98216.60
2022-08-16T03:43:51.777Z,98222.60
2022-08-16T03:46:47.678Z,98222.20
2022-08-16T03:49:04.821Z,98220.00
2022-08-16T03:51:32.471Z,98221.40
2022-08-16T03:54:01.761Z,98221.60
2022-08-16T03:56:30.402Z,98219.60
2022-08-16T03:58:59.699Z,98229.60
2022-08-16T04:01:29.444Z,98226.40
2022-08-16T04:03:57.777Z,98232.20
2022-08-16T04:06:25.365Z,98230.00
2022-08-16T04:08:54.452Z,98235.60
2022-08-16T04:11:23.577Z,98234.60
2022-08-16T04:13:59.415Z,98234.60
2022-08-16T04:16:35.295Z,98227.00
2022-08-16T04:19:04.935Z,98229.60
2022-08-16T04:21:47.393Z,98232.20
2022-08-16T04:24:15.756Z,98235.80
2022-08-16T04:26:46.411Z,98233.20
2022-08-16T04:29:23.904Z,98238.80
2022-08-16T04:31:56.316Z,98243.60
2022-08-16T04:34:36.195Z,98239.00
2022-08-16T04:37:07.159Z,98238.20
2022-08-16T04:39:47.362Z,98241.80
2022-08-16T04:42:25.922Z,98242.20
2022-08-16T04:44:56.171Z,98235.60
2022-08-16T04:47:32.995Z,98230.60
2022-08-16T04:50:16.251Z,98228.40
2022-08-16T04:52:49.079Z,98235.00
2022-08-16T04:55:31.638Z,98234.00
2022-08-16T04:58:04.681Z,98232.40
2022-08-16T05:00:52.968Z,98240.00
2022-08-16T05:03:21.347Z,98239.20
2022-08-16T05:05:59.475Z,98238.60
2022-08-16T05:08:33.101Z,98245.40
2022-08-16T05:11:08.317Z,98249.60
2022-08-16T05:13:42.399Z,98256.80
2022-08-16T05:16:19.872Z,98258.00
2022-08-16T05:18:51.388Z,98256.60
2022-08-16T05:21:20.804Z,98249.60
2022-08-16T05:23:58.444Z,98253.40
2022-08-16T05:26:29.976Z,98248.20
2022-08-16T05:29:00.185Z,98250.20
2022-08-16T05:31:32.788Z,98250.80
2022-08-16T05:34:04.615Z,98253.80
2022-08-16T05:36:37.048Z,98261.60
2022-08-16T05:39:09.638Z,98265.60
2022-08-16T05:41:45.535Z,98267.20
2022-08-16T05:44:23.201Z,98267.80
2022-08-16T05:46:56.410Z,98273.60
2022-08-16T05:49:36.938Z,98276.40
2022-08-16T05:52:11.790Z,98280.40
2022-08-16T05:54:47.183Z,98283.00
2022-08-16T05:57:18.504Z,98287.60
2022-08-16T05:59:50.352Z,98296.40
2022-08-16T06:02:21.797Z,98298.60
2022-08-16T06:04:56.637Z,98301.00
2022-08-16T06:07:26.583Z,98295.60
2022-08-16T06:09:59.624Z,98294.00
2022-08-16T06:12:29.705Z,98294.60
2022-08-16T06:15:04.345Z,98290.60
2022-08-16T06:17:43.219Z,98286.40
2022-08-16T06:20:24.334Z,98286.80
2022-08-16T06:23:03.069Z,98289.40
2022-08-16T06:25:36.548Z,98291.60
2022-08-16T06:28:17.309Z,98291.60
2022-08-16T06:31:01.362Z,98285.60
2022-08-16T06:33:29.743Z,98294.20
2022-08-16T06:36:11.809Z,98292.40
2022-08-16T06:38:55.836Z,98295.40
2022-08-16T06:41:27.600Z,98294.80
2022-08-16T06:43:56.556Z,98290.00
2022-08-16T06:46:40.202Z,98295.40
2022-08-16T06:49:11.919Z,98295.20
2022-08-16T06:51:48.403Z,98296.80
2022-08-16T06:54:17.348Z,98297.40
2022-08-16T06:56:45.679Z,98297.20
2022-08-16T06:59:13.514Z,98302.60
2022-08-16T07:01:43.161Z,98302.60
2022-08-16T07:04:32.720Z,98304.00
2022-08-16T07:07:02.864Z,98306.40
2022-08-16T07:09:31.399Z,98305.00
2022-08-16T07:12:03.254Z,98305.60
2022-08-16T07:14:33.098Z,98305.00
2022-08-16T07:17:01.573Z,98311.80
2022-08-16T07:20:29.990Z,98309.80
2022-08-16T07:22:37.528Z,98307.80
2022-08-16T07:25:14.247Z,98309.00
2022-08-16T07:27:44.129Z,98307.20
2022-08-16T07:30:39.925Z,98309.20
2022-08-16T07:33:07.242Z,98308.20
2022-08-16T07:35:36.138Z,98303.00
2022-08-16T07:38:06.296Z,98305.40
2022-08-16T07:40:59.150Z,98299.00
2022-08-16T07:43:25.006Z,98295.20
2022-08-16T07:45:57.140Z,98296.80
2022-08-16T07:48:25.104Z,98294.00
2022-08-16T07:50:56.187Z,98292.40
2022-08-16T07:53:32.558Z,98292.00
2022-08-16T07:56:00.797Z,98293.60
2022-08-16T07:58:33.760Z,98300.60
2022-08-16T08:01:10.488Z,98298.20
2022-08-16T08:03:48.280Z,98300.80
2022-08-16T08:06:27.756Z,98299.80
2022-08-16T08:08:59.355Z,98302.00
2022-08-16T08:11:29.844Z,98305.60
2022-08-16T08:14:03.019Z,98304.60
2022-08-16T08:16:33.793Z,98305.40
2022-08-16T08:19:04.289Z,98305.00
2022-08-16T08:21:59.258Z,98302.80
2022-08-16T08:24:31.752Z,98304.60
2022-08-16T08:27:04.215Z,98306.80
2022-08-16T08:29:37.756Z,98303.00
2022-08-16T08:32:58.198Z,98309.00
2022-08-16T08:35:00.503Z,98302.40
2022-08-16T08:37:54.223Z,98309.00
2022-08-16T08:40:27.662Z,98305.40
2022-08-16T08:43:11.405Z,98306.20
2022-08-16T08:45:48.789Z,98311.40
2022-08-16T08:48:34.369Z,98302.00
2022-08-16T08:51:09.166Z,98300.20
2022-08-16T08:53:38.318Z,98301.20
2022-08-16T08:56:22.508Z,98303.60
2022-08-16T08:58:53.947Z,98305.20
2022-08-16T09:01:31.788Z,98309.60
2022-08-16T09:04:07.023Z,98306.00
2022-08-16T09:06:35.653Z,98302.20
2022-08-16T09:09:16.976Z,98311.20
2022-08-16T09:11:53.367Z,98309.20
2022-08-16T09:14:26.052Z,98306.80
2022-08-16T09:17:02.935Z,98306.40
2022-08-16T09:19:37.196Z,98300.40
2022-08-16T09:22:20.117Z,98309.20
2022-08-16T09:24:53.137Z,98307.40
2022-08-16T09:27:23.421Z,98313.40
2022-08-16T09:30:00.212Z,98313.40
2022-08-16T09:32:31.261Z,98310.40
2022-08-16T09:35:01.592Z,98314.00
2022-08-16T09:37:36.887Z,98315.80
2022-08-16T09:40:09.599Z,98315.00
2022-08-16T09:42:59.360Z,98312.40
2022-08-16T09:45:28.969Z,98311.20
2022-08-16T09:47:58.551Z,98311.40
2022-08-16T09:50:36.879Z,98310.80
2022-08-16T09:53:18.311Z,98306.60
2022-08-16T09:55:53.645Z,98309.00
2022-08-16T09:58:40.832Z,98307.00
2022-08-16T10:01:11.535Z,98306.40
2022-08-16T10:04:01.945Z,98305.20
2022-08-16T10:06:33.366Z,98307.60
2022-08-16T10:09:06.797Z,98310.20
2022-08-16T10:11:56.567Z,98312.60
2022-08-16T10:14:40.720Z,98312.20
2022-08-16T10:17:14.786Z,98318.40
2022-08-16T10:19:43.146Z,98316.80
2022-08-16T10:22:12.639Z,98319.40
2022-08-16T10:24:56.037Z,98311.20
2022-08-16T10:27:45.630Z,98305.80
2022-08-16T10:30:25.662Z,98309.00
2022-08-16T10:32:57.736Z,98312.00
2022-08-16T10:35:32.970Z,98314.60
2022-08-16T10:38:01.394Z,98318.60
2022-08-16T10:40:30.650Z,98316.80
2022-08-16T10:43:02.376Z,98319.00
2022-08-16T10:45:36.530Z,98315.60
2022-08-16T10:48:27.303Z,98317.00
2022-08-16T10:51:00.514Z,98320.60
2022-08-16T10:53:32.736Z,98320.40
2022-08-16T10:56:06.305Z,98318.60
2022-08-16T10:59:32.370Z,98318.40
2022-08-16T11:02:21.750Z,98309.80
2022-08-16T11:13:21.159Z,98295.80
2022-08-16T11:15:55.387Z,98292.40
2022-08-16T11:18:48.842Z,98293.00
2022-08-16T11:21:28.623Z,98288.80
2022-08-16T11:23:58.977Z,98290.40
2022-08-16T11:26:28.362Z,98289.40
2022-08-16T11:29:13.965Z,98286.80
2022-08-16T11:31:45.938Z,98290.60
2022-08-16T11:34:22.265Z,98281.60
2022-08-16T11:36:53.755Z,98288.80
2022-08-16T11:39:29.694Z,98285.40
2022-08-16T11:41:58.062Z,98285.00
2022-08-16T11:44:52.067Z,98287.00
2022-08-16T11:47:13.521Z,98277.20
2022-08-16T11:49:41.186Z,98273.00
2022-08-16T11:52:08.913Z,98270.00
2022-08-16T11:54:37.543Z,98270.40
2022-08-16T11:57:09.431Z,98279.80
2022-08-16T11:59:39.780Z,98279.40
2022-08-16T12:02:31.229Z,98281.80
2022-08-16T12:04:57.791Z,98281.40
2022-08-16T12:07:25.508Z,98287.80
2022-08-16T12:09:54.144Z,98294.60
2022-08-16T12:12:23.506Z,98296.80
2022-08-16T12:14:59.891Z,98296.60
2022-08-16T12:17:32.531Z,98296.60
2022-08-16T12:20:18.549Z,98287.20
2022-08-16T12:22:47.285Z,98278.80
2022-08-16T12:25:17.992Z,98273.40
2022-08-16T12:27:49.770Z,98285.60
2022-08-16T12:30:27.061Z,98288.60
2022-08-16T12:33:03.071Z,98296.20
2022-08-16T12:35:32.600Z,98300.60
2022-08-16T12:38:38.163Z,98297.80
2022-08-16T12:40:55.537Z,98298.40
2022-08-16T12:43:25.409Z,98302.20
2022-08-16T12:45:56.269Z,98308.00
2022-08-16T12:48:51.116Z,98303.00
2022-08-16T12:51:30.591Z,98307.60
2022-08-16T12:54:04.423Z,98300.40
2022-08-16T12:56:36.183Z,98291.00
2022-08-16T12:59:12.194Z,98280.80
2022-08-16T13:01:50.641Z,98283.40
2022-08-16T13:04:33.287Z,98289.60
2022-08-16T13:07:04.638Z,98297.00
2022-08-16T13:09:42.907Z,98300.80
2022-08-16T13:12:23.827Z,98311.60
2022-08-16T13:14:53.938Z,98316.20
2022-08-16T13:17:29.495Z,98319.20
2022-08-16T13:20:08.612Z,98308.60
2022-08-16T13:22:50.493Z,98302.40
2022-08-16T13:25:25.281Z,98302.20
2022-08-16T13:28:01.924Z,98303.20
2022-08-16T13:30:43.132Z,98309.00
2022-08-16T13:33:26.115Z,98306.80
2022-08-16T13:36:01.543Z,98305.80
2022-08-16T13:38:37.278Z,98312.20
2022-08-16T13:41:09.460Z,98321.00
2022-08-16T13:43:39.152Z,98329.20
2022-08-16T13:46:08.032Z,98327.20
2022-08-16T13:48:44.490Z,98332.40
2022-08-16T13:51:17.843Z,98326.40
2022-08-16T13:53:54.626Z,98325.60
2022-08-16T13:56:37.445Z,98325.40
2022-08-16T13:59:20.906Z,98323.20
2022-08-16T14:01:55.439Z,98315.60
2022-08-16T14:04:38.128Z,98308.40
2022-08-16T14:07:12.295Z,98312.60
2022-08-16T14:09:48.268Z,98312.00
2022-08-16T14:12:30.762Z,98312.60
2022-08-16T14:15:00.546Z,98314.80
2022-08-16T14:18:01.685Z,98317.00
2022-08-16T14:20:19.348Z,98318.40
2022-08-16T14:22:52.476Z,98318.60
2022-08-16T14:25:23.835Z,98319.00
2022-08-16T14:27:52.357Z,98324.80
2022-08-16T14:30:23.486Z,98330.80
2022-08-16T14:32:52.925Z,98332.00
2022-08-16T14:35:29.265Z,98330.60
2022-08-16T14:38:05.609Z,98332.20
2022-08-16T14:40:33.733Z,98333.00
2022-08-16T14:43:06.214Z,98334.40
2022-08-16T14:45:35.365Z,98339.60
2022-08-16T14:48:03.587Z,98339.40
2022-08-16T14:50:33.913Z,98340.20
2022-08-16T14:53:08.661Z,98335.80
2022-08-16T14:55:41.082Z,98326.00
2022-08-16T14:58:18.731Z,98325.20
2022-08-16T15:00:50.310Z,98321.40
2022-08-16T15:03:23.257Z,98326.80
2022-08-16T15:05:53.696Z,98324.80
2022-08-16T15:08:21.967Z,98317.80
2022-08-16T15:11:07.664Z,98317.40
2022-08-16T15:13:36.219Z,98324.80
2022-08-16T15:16:05.640Z,98330.80
2022-08-16T15:18:34.141Z,98342.80
2022-08-16T15:21:05.228Z,98350.60
2022-08-16T15:23:36.934Z,98366.60
2022-08-16T15:26:08.571Z,98382.00
2022-08-16T15:28:37.900Z,98385.00
2022-08-16T15:31:10.344Z,98394.60
2022-08-16T15:33:49.955Z,98397.40
2022-08-16T15:36:21.299Z,98392.40
2022-08-16T15:39:02.271Z,98403.60
2022-08-16T15:41:43.095Z,98420.80
2022-08-16T15:44:22.735Z,98425.60
2022-08-16T15:46:56.994Z,98412.80
2022-08-16T15:49:37.498Z,98411.00
2022-08-16T15:52:20.504Z,98410.40
2022-08-16T15:54:53.292Z,98406.80
2022-08-16T15:57:28.333Z,98413.80
2022-08-16T16:00:14.872Z,98416.40
2022-08-16T16:02:45.156Z,98418.00
2022-08-16T16:05:14.060Z,98422.60
2022-08-16T16:07:56.770Z,98418.00
2022-08-16T16:10:30.966Z,98416.40
2022-08-16T16:13:03.766Z,98410.80
2022-08-16T16:15:50.105Z,98410.20
2022-08-16T16:18:20.505Z,98407.00
2022-08-16T16:20:54.100Z,98408.20
2022-08-16T16:23:31.963Z,98398.80
2022-08-16T16:26:05.851Z,98400.00
2022-08-16T16:29:06.276Z,98396.40
2022-08-16T16:31:24.470Z,98399.00
2022-08-16T16:33:56.183Z,98395.80
2022-08-16T16:36:29.367Z,98391.20
2022-08-16T16:38:57.681Z,98389.60
2022-08-16T16:41:29.392Z,98385.40
2022-08-16T16:44:00.253Z,98380.60
2022-08-16T16:46:43.409Z,98374.40
2022-08-16T16:49:14.302Z,98373.80
2022-08-16T16:51:44.894Z,98376.20
2022-08-16T16:54:27.461Z,98389.80
2022-08-16T16:56:58.210Z,98387.40
2022-08-16T16:59:28.331Z,98384.20
2022-08-16T17:02:41.273Z,98377.00
2022-08-16T17:04:48.333Z,98378.40
2022-08-16T17:07:17.700Z,98389.00
2022-08-16T17:09:53.687Z,98381.00
2022-08-16T17:12:25.469Z,98379.80
2022-08-16T17:15:11.119Z,98384.80
2022-08-16T17:17:59.225Z,98384.20
2022-08-16T17:20:27.497Z,98388.40
2022-08-16T17:22:56.665Z,98394.80
2022-08-16T17:25:27.092Z,98397.80
2022-08-16T17:28:58.962Z,98407.40
2022-08-16T17:30:55.510Z,98407.60
2022-08-16T17:33:23.289Z,98406.40
2022-08-16T17:35:55.874Z,98401.80
2022-08-16T17:38:38.530Z,98397.60
2022-08-16T17:41:13.903Z,98401.60
2022-08-16T17:43:45.254Z,98403.80
2022-08-16T17:46:51.006Z,98405.00
2022-08-16T17:49:04.975Z,98414.80
2022-08-16T17:51:34.289Z,98414.00
2022-08-16T17:54:03.541Z,98414.40
2022-08-16T17:56:31.756Z,98414.00
2022-08-16T17:58:59.416Z,98417.80
2022-08-16T18:01:28.793Z,98415.80
2022-08-16T18:04:07.119Z,98417.00
2022-08-16T18:06:39.652Z,98417.40
2022-08-16T18:09:09.347Z,98417.00
2022-08-16T18:11:41.247Z,98413.40
2022-08-16T18:14:12.493Z,98410.40
2022-08-16T18:16:41.877Z,98408.20
2022-08-16T18:19:13.212Z,98410.20
2022-08-16T18:22:00.015Z,98414.20
2022-08-16T18:24:29.565Z,98410.60
2022-08-16T18:27:24.759Z,98419.00
2022-08-16T18:29:47.195Z,98419.60
2022-08-16T18:32:23.488Z,98418.60
2022-08-16T18:34:54.805Z,98426.40
2022-08-16T18:37:25.569Z,98427.80
2022-08-16T18:39:53.313Z,98426.20
2022-08-16T18:42:21.072Z,98426.80
2022-08-16T18:44:49.047Z,98421.60
2022-08-16T18:47:16.641Z,98416.20
2022-08-16T18:49:44.397Z,98417.60
2022-08-16T18:52:25.057Z,98413.60
2022-08-16T18:54:58.895Z,98417.20
2022-08-16T18:57:41.855Z,98415.80
2022-08-16T19:00:14.727Z,98415.60
2022-08-16T19:02:58.388Z,98418.20
2022-08-16T19:05:31.017Z,98430.80
2022-08-16T19:07:58.889Z,98436.80
2022-08-16T19:10:26.628Z,98436.00
2022-08-16T19:12:54.460Z,98437.80
2022-08-16T19:15:26.376Z,98442.40
2022-08-16T19:17:55.369Z,98442.40
2022-08-16T19:20:26.040Z,98445.00
2022-08-16T19:23:10.914Z,98454.00
2022-08-16T19:25:46.816Z,98447.80
2022-08-16T19:28:51.431Z,98447.80
2022-08-16T19:31:23.555Z,98450.00
2022-08-16T19:33:55.450Z,98448.40
2022-08-16T19:36:31.619Z,98456.00
2022-08-16T19:39:09.058Z,98452.20
2022-08-16T19:41:43.883Z,98454.60
2022-08-16T19:44:12.852Z,98455.40
2022-08-16T19:46:44.789Z,98454.80
2022-08-16T19:49:16.591Z,98453.00
2022-08-16T19:51:47.054Z,98454.60
2022-08-16T19:54:15.772Z,98455.80
2022-08-16T19:56:43.772Z,98458.00
2022-08-16T19:59:21.009Z,98456.80
2022-08-16T20:01:53.684Z,98457.20
2022-08-16T20:04:23.410Z,98462.40
2022-08-16T20:06:53.085Z,98465.40
2022-08-16T20:09:24.522Z,98469.60
2022-08-16T20:11:54.614Z,98469.60
2022-08-16T20:14:25.234Z,98475.20
2022-08-16T20:16:57.218Z,98474.40
2022-08-16T20:19:28.943Z,98481.00
2022-08-16T20:22:01.839Z,98481.80
2022-08-16T20:24:35.191Z,98483.60
2022-08-16T20:27:08.665Z,98489.00
2022-08-16T20:29:39.435Z,98486.20
2022-08-16T20:32:11.904Z,98491.40
2022-08-16T20:34:41.675Z,98499.40
2022-08-16T20:37:12.837Z,98499.00
2022-08-16T20:39:44.037Z,98501.00
2022-08-16T20:42:14.445Z,98504.20
2022-08-16T20:44:43.021Z,98501.80
2022-08-16T20:47:11.320Z,98500.20
2022-08-16T20:49:38.960Z,98500.20
2022-08-16T20:52:13.688Z,98504.20
2022-08-16T20:54:42.838Z,98507.80
2022-08-16T20:57:12.096Z,98511.00
2022-08-16T20:59:40.048Z,98511.00
2022-08-16T21:02:11.529Z,98518.80
2022-08-16T21:04:39.786Z,98515.20
2022-08-16T21:07:07.748Z,98518.40
2022-08-16T21:09:37.231Z,98517.20
2022-08-16T21:12:11.393Z,98513.20
2022-08-16T21:14:43.045Z,98511.00
2022-08-16T21:17:13.305Z,98507.60
2022-08-16T21:19:40.947Z,98512.20
2022-08-16T21:22:22.209Z,98510.00
2022-08-16T21:24:54.218Z,98511.80
2022-08-16T21:27:24.286Z,98510.00
2022-08-16T21:29:52.611Z,98506.20
2022-08-16T21:32:35.818Z,98504.40
2022-08-16T21:35:08.718Z,98509.60
2022-08-16T21:37:36.441Z,98509.00
2022-08-16T21:40:06.623Z,98511.80
2022-08-16T21:42:41.143Z,98511.00
2022-08-16T21:45:13.311Z,98515.20
2022-08-16T21:47:42.897Z,98516.60
2022-08-16T21:50:12.790Z,98518.20
2022-08-16T21:52:40.377Z,98516.00
2022-08-16T21:55:08.866Z,98514.20
2022-08-16T21:57:36.646Z,98512.60
2022-08-16T22:00:13.983Z,98511.60
2022-08-16T22:02:41.753Z,98511.40
2022-08-16T22:05:09.669Z,98512.40
2022-08-16T22:07:37.573Z,98509.00
2022-08-16T22:11:06.816Z,98510.80
2022-08-16T22:12:55.290Z,98517.80
2022-08-16T22:15:25.620Z,98519.00
2022-08-16T22:17:59.444Z,98521.20
2022-08-16T22:20:29.328Z,98519.20
2022-08-16T22:23:10.457Z,98524.20
2022-08-16T22:25:42.837Z,98523.20
2022-08-16T22:28:12.283Z,98521.80
2022-08-16T22:30:41.208Z,98520.00
2022-08-16T22:33:23.318Z,98519.20
2022-08-16T22:36:02.068Z,98519.60
2022-08-16T22:38:55.527Z,98517.40
2022-08-16T22:41:17.829Z,98510.00
2022-08-16T22:43:49.436Z,98511.40
2022-08-16T22:46:18.735Z,98509.20
2022-08-16T22:48:48.339Z,98506.60
2022-08-16T22:51:16.892Z,98503.20
2022-08-16T22:53:44.567Z,98499.00
2022-08-16T22:56:12.202Z,98501.00
2022-08-16T22:58:39.789Z,98499.20
2022-08-16T23:01:09.752Z,98495.40
2022-08-16T23:03:39.197Z,98493.40
2022-08-16T23:06:08.264Z,98500.20
2022-08-16T23:08:40.919Z,98497.60
2022-08-16T23:11:21.190Z,98491.20
2022-08-16T23:13:54.253Z,98489.00
2022-08-16T23:16:32.571Z,98481.80
2022-08-16T23:19:11.585Z,98483.40
2022-08-16T23:21:46.941Z,98474.80
2022-08-16T23:24:20.330Z,98473.60
2022-08-16T23:26:49.253Z,98470.80
2022-08-16T23:29:25.450Z,98467.60
2022-08-16T23:32:10.944Z,98467.60
2022-08-16T23:34:38.876Z,98471.80
2022-08-16T23:37:06.642Z,98465.00
2022-08-16T23:39:35.806Z,98465.60
2022-08-16T23:42:15.549Z,98459.40
2022-08-16T23:45:04.542Z,98466.40
2022-08-16T23:47:32.161Z,98465.80
2022-08-16T23:50:03.440Z,98468.40
2022-08-16T23:52:42.105Z,98474.40
2022-08-16T23:55:20.062Z,98472.40
2022-08-16T23:57:48.450Z,98466.00
